Pagina principale
METAR-TAF:

METAR-TAF

Aeroporti :

Aeroporto di Stoccolma-Arlanda

Stoccolma-Arlanda, Svezia

latitudine: 59-39N, longitudine: 017-57E, altezza: 38 m

Osservazione

Il bollettino è stato emesso 26 minuti fa, alle 17:20 UTC
Vento 3 kt da sud/sud-ovest
Temperature 4°C
Umidità 87%
Pressione 1021 hPa
Visibilità 10 km o più
nessuna nube inferiore a 1500 m e nessun cumulonembo

METAR: ESSA 191720Z 21003KT CAVOK 04/02 Q1021 NOSIG

Ora: 19:46 (17:46 UTC)

Previsione

Il bollettino è stato emesso 16 minuti fa, alle 17:30 UTC
Previsione valida dal 19 alle 18 UTC al 20 alle 18 UTC
Vento 4 kt da ovest/sud-ovest
Visibilità 10 km o più
nessuna nube inferiore a 1500 m e nessun cumulonembo
Probabilità 40%
dal 19 alle 22 UTC al 20 alle 06 UTC
Visibilità: 3000 m
Nebbia poco profondo
Probabilità 40%
dal 20 alle 06 UTC al 20 alle 09 UTC
Nuvoloso ad un'altezza di 600 ft

TAF: ESSA 191730Z 1918/2018 24004KT CAVOK PROB40 1922/2006 3000 MIFG PROB40 2006/2009 BKN006

Osservazioni e previsioni meteorologiche di più di 4000 aeroporti (messaggi METAR e TAF).

Le stazioni disponibili sono rappresentate dai dischi gialli e rossi sulla carta.

Puntare il mouse per vedere il nome della stazione.

Clicca sopra per visualizzare le osservazioni e previsioni meteorologiche.

Per cambiare la mappa : fare clic sui pulsanti verdi con una croce nera per ingrandire, il pulsante verde con un trattino per diminuire, o sulla freccia verde per le mappe adiacenti.


METAR-TAF: